Time;durP1;ratioP1;P1;durP2;ratioP2;P2;SDS_P1;SDS_P2;PMS_P1;PMS_P2;Temp;Humidity;BMP_temperature;BMP_pressure;BME280_temperature;BME280_humidity;BME280_pressure;Samples;Min_cycle;Max_cycle;Signal;HPM_P1;HPM_P2
2023/03/04 00:00:14;;;;;;;7.95;5.60;;;11.20;82.60;;;;;;10789207;33;20062;-73
2023/03/04 00:06:16;;;;;;;12.55;8.90;;;11.10;82.50;;;;;;10789009;33;20059;-73
2023/03/04 00:12:19;;;;;;;13.27;10.07;;;10.90;82.50;;;;;;10786141;33;20021;-73
2023/03/04 00:18:39;;;;;;;9.18;7.82;;;10.90;82.30;;;;;;10789217;33;20024;-73
2023/03/04 00:24:41;;;;;;;8.95;6.50;;;10.90;82.30;;;;;;10822518;27;20054;-73
2023/03/04 00:30:43;;;;;;;13.32;9.70;;;10.70;82.20;;;;;;10825178;33;20042;-73
2023/03/04 00:36:45;;;;;;;10.63;7.95;;;10.60;82.20;;;;;;10825323;32;20051;-74
2023/03/04 00:42:48;;;;;;;8.77;6.80;;;10.60;82.00;;;;;;10824668;33;20042;-74
2023/03/04 00:48:50;;;;;;;14.27;10.77;;;10.70;82.00;;;;;;10808022;33;20066;-73
2023/03/04 00:54:52;;;;;;;10.35;7.25;;;10.70;82.20;;;;;;10812090;33;20051;-73
2023/03/04 01:01:10;;;;;;;9.15;6.57;;;10.70;82.00;;;;;;10823238;33;20032;-73
2023/03/04 01:07:13;;;;;;;10.00;6.55;;;10.60;82.00;;;;;;10825967;33;20015;-73
2023/03/04 01:13:15;;;;;;;11.45;7.32;;;10.50;81.90;;;;;;10824677;33;20055;-73
2023/03/04 01:19:17;;;;;;;9.60;6.78;;;10.50;81.80;;;;;;10825180;33;20042;-73
2023/03/04 01:25:19;;;;;;;10.10;8.05;;;10.30;81.80;;;;;;10823995;33;20020;-73
2023/03/04 01:31:21;;;;;;;7.68;5.65;;;10.20;81.60;;;;;;10824266;33;20012;-73
2023/03/04 01:37:24;;;;;;;10.35;7.05;;;10.20;81.60;;;;;;10824010;33;20063;-73
2023/03/04 01:43:28;;;;;;;9.48;6.35;;;10.10;81.60;;;;;;10823406;33;20008;-73
2023/03/04 01:49:30;;;;;;;8.50;6.60;;;10.10;81.50;;;;;;10825154;32;20020;-73
2023/03/04 01:55:32;;;;;;;9.70;6.40;;;10.20;81.30;;;;;;10829606;33;20016;-73
2023/03/04 02:01:36;;;;;;;7.25;5.35;;;10.10;81.00;;;;;;10830656;33;20043;-73
2023/03/04 02:07:39;;;;;;;9.60;7.20;;;10.00;81.00;;;;;;10828880;33;20035;-73
2023/03/04 02:13:41;;;;;;;7.82;6.45;;;9.80;81.10;;;;;;10811996;33;20050;-73
2023/03/04 02:19:57;;;;;;;10.80;7.50;;;9.70;81.10;;;;;;10828804;33;20012;-73
2023/03/04 02:26:20;;;;;;;8.70;5.78;;;9.70;81.10;;;;;;10812207;33;20058;-73
2023/03/04 02:32:23;;;;;;;7.35;5.57;;;9.70;81.00;;;;;;10814062;33;20019;-73
2023/03/04 02:38:25;;;;;;;9.90;6.35;;;9.70;80.80;;;;;;10828488;33;20074;-73
2023/03/04 02:44:30;;;;;;;14.87;10.98;;;9.50;80.70;;;;;;10829443;33;20035;-73
2023/03/04 02:50:42;;;;;;;10.05;6.43;;;9.50;80.80;;;;;;10828561;33;20184;-73
2023/03/04 02:56:47;;;;;;;9.65;6.55;;;9.50;80.80;;;;;;10829092;33;20028;-73
2023/03/04 03:02:49;;;;;;;10.20;6.03;;;9.40;80.70;;;;;;10827574;32;20023;-73
2023/03/04 03:08:52;;;;;;;9.60;6.62;;;9.20;81.00;;;;;;10827206;33;20051;-73
2023/03/04 03:14:55;;;;;;;8.43;5.50;;;9.30;81.00;;;;;;10809692;33;20032;-73
2023/03/04 03:20:57;;;;;;;13.98;8.27;;;9.30;80.70;;;;;;10827200;33;20398;-73
2023/03/04 03:26:59;;;;;;;12.43;8.20;;;9.20;80.70;;;;;;10826961;33;20025;-73
2023/03/04 03:33:01;;;;;;;9.93;6.05;;;9.10;80.70;;;;;;10827928;33;20046;-73
2023/03/04 03:39:04;;;;;;;8.35;6.50;;;9.10;80.60;;;;;;10813503;33;20024;-73
2023/03/04 03:45:06;;;;;;;8.63;6.15;;;8.80;80.60;;;;;;10827651;33;20055;-73
2023/03/04 03:51:08;;;;;;;10.52;7.72;;;8.70;81.40;;;;;;10827268;33;20024;-73
2023/03/04 03:57:10;;;;;;;10.43;6.62;;;8.90;81.10;;;;;;10813372;33;20020;-73
2023/03/04 04:03:14;;;;;;;10.15;7.60;;;8.90;80.90;;;;;;10827161;33;20050;-73
2023/03/04 04:09:17;;;;;;;8.90;6.40;;;9.00;80.70;;;;;;10822500;33;20016;-73
2023/03/04 04:15:19;;;;;;;8.80;6.37;;;9.00;80.60;;;;;;10826175;32;20334;-73
2023/03/04 04:21:22;;;;;;;9.68;7.05;;;8.90;80.60;;;;;;10825034;33;20303;-73
2023/03/04 04:27:24;;;;;;;10.60;6.12;;;8.70;80.50;;;;;;10825371;33;20043;-73
2023/03/04 04:33:26;;;;;;;9.45;6.90;;;8.30;81.10;;;;;;10825762;33;20368;-73
2023/03/04 04:39:47;;;;;;;9.10;5.87;;;8.30;81.70;;;;;;10824977;33;20020;-73
2023/03/04 04:45:49;;;;;;;10.63;8.00;;;8.40;81.30;;;;;;10820929;33;20025;-73
2023/03/04 04:51:51;;;;;;;21.48;11.52;;;8.50;81.30;;;;;;10824804;33;20062;-73
2023/03/04 04:57:53;;;;;;;10.05;8.07;;;8.60;81.20;;;;;;10811383;33;20012;-73
2023/03/04 05:03:55;;;;;;;8.82;6.03;;;8.70;81.00;;;;;;10812568;33;20071;-73
2023/03/04 05:09:57;;;;;;;8.93;6.32;;;8.60;80.90;;;;;;10823127;33;20043;-73
2023/03/04 05:16:00;;;;;;;14.15;9.77;;;8.50;80.70;;;;;;10823318;33;20342;-73
2023/03/04 05:22:02;;;;;;;15.57;9.55;;;8.40;81.10;;;;;;10810429;33;20038;-73
2023/03/04 05:28:06;;;;;;;8.88;5.65;;;8.40;80.80;;;;;;10829652;32;20418;-71
2023/03/04 05:34:08;;;;;;;7.65;5.20;;;8.30;80.80;;;;;;10828314;33;20054;-71
2023/03/04 05:40:11;;;;;;;6.82;4.53;;;8.30;80.70;;;;;;10830693;33;20020;-71
2023/03/04 05:46:15;;;;;;;9.05;6.28;;;8.00;80.60;;;;;;10829938;33;20016;-73
2023/03/04 05:52:17;;;;;;;7.30;5.90;;;7.70;81.50;;;;;;10816128;33;20398;-73
2023/03/04 05:58:20;;;;;;;10.98;7.97;;;7.90;81.30;;;;;;10817571;33;20016;-75
2023/03/04 06:04:23;;;;;;;8.55;5.53;;;7.90;81.30;;;;;;10830132;33;20020;-74
2023/03/04 06:10:25;;;;;;;13.25;6.35;;;7.80;81.20;;;;;;10827576;33;20047;-74
2023/03/04 06:16:27;;;;;;;10.13;5.68;;;7.80;81.20;;;;;;10830220;33;20016;-74
2023/03/04 06:22:30;;;;;;;18.55;5.85;;;7.90;81.30;;;;;;10828836;33;20016;-75
2023/03/04 06:28:32;;;;;;;10.20;5.72;;;7.90;81.10;;;;;;10828715;33;20023;-74
2023/03/04 06:34:35;;;;;;;9.55;5.00;;;8.00;81.00;;;;;;10828315;32;20012;-74
2023/03/04 06:40:37;;;;;;;14.85;10.43;;;8.10;81.00;;;;;;10826314;33;20015;-75
2023/03/04 06:46:48;;;;;;;10.35;7.47;;;8.20;80.90;;;;;;10802481;33;20058;-74
2023/03/04 06:52:50;;;;;;;9.75;6.20;;;8.30;80.70;;;;;;10825818;33;20105;-74
2023/03/04 06:58:52;;;;;;;10.10;6.72;;;8.40;80.90;;;;;;10829069;33;20012;-74
2023/03/04 07:04:54;;;;;;;9.15;6.37;;;8.50;80.90;;;;;;10825139;33;20015;-75
2023/03/04 07:10:57;;;;;;;12.18;7.57;;;8.50;81.10;;;;;;10813673;33;20070;-75
2023/03/04 07:16:59;;;;;;;12.52;7.15;;;8.60;81.30;;;;;;10827641;33;20047;-74
2023/03/04 07:23:01;;;;;;;8.60;6.37;;;8.70;81.40;;;;;;10827382;33;20398;-73
2023/03/04 07:29:05;;;;;;;9.52;7.55;;;8.70;81.40;;;;;;10828076;33;20027;-73
2023/03/04 07:35:08;;;;;;;14.25;8.63;;;8.80;81.60;;;;;;10823973;33;20015;-73
2023/03/04 07:41:28;;;;;;;14.10;7.40;;;8.80;81.90;;;;;;10826426;33;20016;-73
2023/03/04 07:47:30;;;;;;;11.75;7.45;;;9.00;81.90;;;;;;10826398;32;20008;-73
2023/03/04 07:53:49;;;;;;;13.98;7.15;;;9.10;82.20;;;;;;10827443;33;20020;-72
2023/03/04 07:59:51;;;;;;;9.17;6.13;;;9.20;82.30;;;;;;10787250;33;20047;-72
2023/03/04 08:05:53;;;;;;;12.88;8.63;;;9.20;82.40;;;;;;10791612;33;20047;-72
2023/03/04 08:11:55;;;;;;;13.93;10.18;;;9.40;82.70;;;;;;10788925;33;20055;-73
2023/03/04 08:17:58;;;;;;;8.95;5.43;;;9.40;82.80;;;;;;10788796;33;20327;-73
2023/03/04 08:24:06;;;;;;;11.32;5.80;;;9.60;82.80;;;;;;10407232;32;17094506;-73
2023/03/04 08:30:22;;;;;;;13.57;11.30;;;9.70;83.00;;;;;;10978347;32;20040;-73
2023/03/04 08:36:50;;;;;;;13.27;9.20;;;9.70;83.10;;;;;;10981304;32;20037;-72
2023/03/04 08:42:53;;;;;;;15.98;7.90;;;9.80;82.90;;;;;;10979774;32;20037;-73
2023/03/04 08:48:55;;;;;;;12.13;8.55;;;9.80;83.00;;;;;;10980842;32;20018;-73
2023/03/04 08:54:57;;;;;;;12.00;7.53;;;9.80;83.10;;;;;;10980790;32;20010;-72
2023/03/04 09:01:01;;;;;;;15.65;10.70;;;10.00;82.90;;;;;;10980121;32;20010;-72
2023/03/04 09:07:03;;;;;;;10.73;8.05;;;10.00;82.70;;;;;;10975171;32;20031;-72
2023/03/04 09:13:05;;;;;;;17.35;11.68;;;10.10;82.40;;;;;;10977754;32;20045;-73
2023/03/04 09:19:08;;;;;;;12.60;9.07;;;10.20;82.40;;;;;;10979794;32;20396;-73
2023/03/04 09:25:14;;;;;;;14.82;8.60;;;10.20;82.60;;;;;;10965277;32;20061;-73
2023/03/04 09:31:16;;;;;;;7.22;5.78;;;10.20;82.60;;;;;;10979446;32;20060;-73
2023/03/04 09:37:18;;;;;;;14.43;7.30;;;10.40;82.40;;;;;;10979538;32;20435;-73
2023/03/04 09:43:28;;;;;;;8.45;5.87;;;10.50;82.50;;;;;;10979994;32;20088;-73
2023/03/04 09:49:31;;;;;;;9.52;5.15;;;10.70;82.10;;;;;;10979077;32;20042;-73
2023/03/04 09:55:39;;;;;;;14.23;9.50;;;10.80;81.80;;;;;;10979780;32;20019;-73
2023/03/04 10:01:49;;;;;;;17.55;10.68;;;11.00;81.40;;;;;;10964831;32;20030;-73
2023/03/04 10:08:25;;;;;;;13.30;8.32;;;11.10;81.20;;;;;;10963097;32;20023;-73
2023/03/04 10:14:39;;;;;;;11.68;8.50;;;11.20;80.60;;;;;;10970769;32;20010;-73
2023/03/04 10:21:21;;;;;;;12.52;6.47;;;11.30;79.90;;;;;;10970874;32;20038;-73
2023/03/04 10:27:24;;;;;;;15.32;11.40;;;11.50;80.30;;;;;;10794139;33;20457;-73
2023/03/04 10:33:30;;;;;;;12.55;9.38;;;11.60;78.20;;;;;;10795444;33;20023;-73
2023/03/04 10:39:43;;;;;;;16.90;11.70;;;11.70;77.60;;;;;;10794278;33;20020;-73
2023/03/04 10:45:47;;;;;;;9.75;7.43;;;11.90;77.10;;;;;;10779446;33;20429;-73
2023/03/04 10:52:17;;;;;;;10.35;7.30;;;12.10;77.10;;;;;;10794044;33;20020;-73
2023/03/04 10:58:20;;;;;;;15.32;8.77;;;12.20;74.90;;;;;;10793900;33;20454;-70
2023/03/04 11:04:24;;;;;;;16.10;9.77;;;12.50;75.30;;;;;;10921771;32;20420;-72
2023/03/04 11:10:36;;;;;;;13.80;9.13;;;12.80;74.80;;;;;;10947193;32;20081;-73
2023/03/04 11:16:38;;;;;;;13.27;8.02;;;13.00;74.20;;;;;;10945216;32;20015;-70
2023/03/04 11:22:43;;;;;;;17.98;10.80;;;13.20;73.50;;;;;;10940547;32;20057;-73
2023/03/04 11:28:56;;;;;;;11.18;7.18;;;13.60;72.60;;;;;;10944643;32;20042;-73
2023/03/04 11:35:06;;;;;;;14.27;10.02;;;13.80;70.70;;;;;;10945140;32;20017;-72
2023/03/04 11:41:18;;;;;;;13.23;8.27;;;14.00;70.10;;;;;;10944135;32;20007;-72
2023/03/04 11:47:50;;;;;;;13.62;9.10;;;14.30;69.90;;;;;;10943921;32;20046;-70
2023/03/04 11:54:16;;;;;;;16.85;11.38;;;14.70;69.10;;;;;;10944464;32;20018;-70
2023/03/04 12:00:26;;;;;;;12.75;9.05;;;14.70;67.10;;;;;;10944414;32;20298;-71
2023/03/04 12:06:59;;;;;;;19.08;13.70;;;14.70;66.80;;;;;;10943518;32;20011;-72
2023/03/04 12:13:27;;;;;;;23.00;13.23;;;14.70;67.10;;;;;;10944460;32;20023;-70
2023/03/04 12:19:29;;;;;;;15.52;9.43;;;14.80;67.30;;;;;;10944199;32;20411;-70
2023/03/04 12:25:40;;;;;;;15.93;9.15;;;15.00;67.50;;;;;;10942072;32;20037;-73
2023/03/04 12:31:45;;;;;;;11.95;7.85;;;15.20;66.50;;;;;;10939817;32;20439;-71
2023/03/04 12:38:06;;;;;;;9.90;7.25;;;15.20;65.70;;;;;;10943610;32;20061;-72
2023/03/04 12:44:17;;;;;;;14.32;9.20;;;15.30;65.10;;;;;;10942843;32;20045;-72
2023/03/04 12:50:44;;;;;;;15.90;10.38;;;15.40;64.20;;;;;;10939785;32;20026;-73
2023/03/04 12:57:01;;;;;;;18.17;12.73;;;15.50;64.30;;;;;;10943043;32;20051;-72
2023/03/04 13:03:22;;;;;;;13.25;9.88;;;15.50;63.30;;;;;;10942932;32;20322;-72
2023/03/04 13:09:39;;;;;;;11.05;7.62;;;15.50;63.00;;;;;;10941737;32;20423;-72
2023/03/04 13:15:41;;;;;;;20.60;11.65;;;15.50;63.00;;;;;;10941958;32;20326;-72
2023/03/04 13:21:47;;;;;;;16.98;10.40;;;15.60;62.60;;;;;;10927979;32;20019;-72
2023/03/04 13:28:04;;;;;;;22.33;10.35;;;15.60;60.90;;;;;;10941173;32;20019;-72
2023/03/04 13:34:45;;;;;;;20.75;9.30;;;15.50;58.50;;;;;;10941648;32;20050;-72
2023/03/04 13:41:19;;;;;;;11.45;8.35;;;15.50;60.30;;;;;;10927179;32;20432;-72
2023/03/04 13:47:52;;;;;;;10.85;7.20;;;15.70;60.00;;;;;;10930820;32;20038;-72
2023/03/04 13:53:53;;;;;;;9.00;7.15;;;15.90;59.80;;;;;;10945754;32;20058;-73
2023/03/04 13:59:57;;;;;;;13.98;8.52;;;16.00;59.30;;;;;;10934286;32;20023;-71
2023/03/04 14:06:20;;;;;;;17.77;11.32;;;16.10;58.50;;;;;;10948867;32;20045;-71
2023/03/04 14:12:22;;;;;;;11.55;8.63;;;16.30;60.60;;;;;;10933908;32;20345;-70
2023/03/04 14:18:24;;;;;;;12.93;9.32;;;16.20;59.40;;;;;;10946609;32;20045;-72
2023/03/04 14:24:29;;;;;;;14.77;11.00;;;16.30;58.50;;;;;;10973990;32;20042;-70
2023/03/04 14:30:32;;;;;;;11.40;7.78;;;16.30;57.20;;;;;;10985451;32;20027;-71
2023/03/04 14:36:35;;;;;;;11.25;8.40;;;16.40;56.90;;;;;;10970265;32;20376;-70
2023/03/04 14:43:00;;;;;;;13.02;8.38;;;16.50;57.30;;;;;;10984206;32;20038;-70
2023/03/04 14:49:03;;;;;;;17.73;7.40;;;16.60;56.60;;;;;;10971934;32;20037;-70
2023/03/04 14:55:07;;;;;;;14.48;7.70;;;16.70;55.80;;;;;;10984545;32;20058;-70
2023/03/04 15:01:21;;;;;;;10.75;7.47;;;16.80;55.30;;;;;;10968670;32;20027;-70
2023/03/04 15:07:33;;;;;;;11.18;6.90;;;17.10;56.10;;;;;;10944401;32;20031;-70
2023/03/04 15:13:52;;;;;;;11.02;7.65;;;17.40;56.10;;;;;;10942056;32;20019;-70
2023/03/04 15:20:06;;;;;;;10.95;8.70;;;17.80;55.40;;;;;;10946336;32;20015;-71
2023/03/04 15:26:10;;;;;;;11.30;8.02;;;18.20;54.70;;;;;;10930983;32;20035;-71
2023/03/04 15:32:14;;;;;;;11.48;8.38;;;18.30;54.50;;;;;;10945286;32;20034;-70
2023/03/04 15:38:16;;;;;;;11.52;7.40;;;18.70;54.20;;;;;;10931581;32;20046;-71
2023/03/04 15:44:18;;;;;;;13.30;8.63;;;19.20;53.40;;;;;;10944711;32;20035;-70
2023/03/04 15:50:20;;;;;;;14.02;6.80;;;19.70;53.20;;;;;;10943858;32;20031;-71
2023/03/04 15:56:25;;;;;;;13.20;8.98;;;20.10;52.80;;;;;;10944351;32;20425;-71
2023/03/04 16:02:27;;;;;;;11.05;7.50;;;20.40;52.80;;;;;;10927639;32;20058;-70
2023/03/04 16:08:29;;;;;;;12.43;8.02;;;20.60;52.30;;;;;;10919223;32;20414;-71
2023/03/04 16:14:35;;;;;;;11.60;7.07;;;20.70;52.90;;;;;;10892088;32;20062;-71
2023/03/04 16:20:39;;;;;;;12.52;6.65;;;20.30;52.90;;;;;;10922345;27;20035;-71
2023/03/04 16:26:41;;;;;;;12.00;7.62;;;19.80;54.10;;;;;;10966923;32;20023;-71
2023/03/04 16:33:03;;;;;;;11.35;7.68;;;19.90;54.60;;;;;;10980968;32;20022;-71
2023/03/04 16:39:20;;;;;;;13.35;8.65;;;19.80;54.30;;;;;;10979706;32;20014;-71
2023/03/04 16:45:31;;;;;;;15.07;10.23;;;18.80;55.30;;;;;;10965487;32;20329;-71
2023/03/04 16:51:44;;;;;;;12.63;9.52;;;17.80;57.50;;;;;;10967674;32;20023;-71
2023/03/04 16:57:46;;;;;;;12.27;8.43;;;16.90;59.10;;;;;;10981260;32;20423;-71
2023/03/04 17:03:48;;;;;;;11.43;8.10;;;16.20;60.30;;;;;;10979388;32;20045;-71
2023/03/04 17:09:50;;;;;;;19.52;6.68;;;15.80;61.30;;;;;;10966935;32;20014;-70
2023/03/04 17:15:52;;;;;;;12.82;8.95;;;15.40;62.00;;;;;;10965593;32;20022;-70
2023/03/04 17:21:59;;;;;;;10.85;6.25;;;15.10;62.70;;;;;;10955954;32;20100;-71
2023/03/04 17:28:01;;;;;;;10.02;6.22;;;14.90;63.30;;;;;;10987580;32;20333;-71
2023/03/04 17:34:03;;;;;;;8.77;5.80;;;14.60;64.00;;;;;;10982200;32;20049;-71
2023/03/04 17:40:12;;;;;;;10.68;7.05;;;14.50;64.70;;;;;;10987001;32;20006;-71
2023/03/04 17:46:17;;;;;;;10.90;6.10;;;14.30;65.30;;;;;;10972649;32;20060;-71
2023/03/04 17:52:20;;;;;;;12.32;7.90;;;14.10;65.90;;;;;;10985169;32;20031;-71
2023/03/04 17:58:23;;;;;;;11.45;6.07;;;13.90;66.40;;;;;;10971457;32;20026;-71
2023/03/04 18:04:25;;;;;;;10.80;7.10;;;13.80;66.90;;;;;;10971888;32;20076;-71
2023/03/04 18:10:27;;;;;;;9.27;4.80;;;13.70;67.40;;;;;;10985183;32;20053;-71
2023/03/04 18:16:29;;;;;;;9.18;5.70;;;13.70;67.90;;;;;;10984752;32;20042;-71
2023/03/04 18:22:31;;;;;;;8.23;4.90;;;13.60;68.30;;;;;;10971136;32;20030;-71
2023/03/04 18:28:34;;;;;;;10.38;7.40;;;13.40;68.80;;;;;;10980528;32;20061;-71
2023/03/04 18:34:38;;;;;;;12.65;8.63;;;13.30;69.10;;;;;;10970941;32;20058;-71
2023/03/04 18:40:41;;;;;;;9.25;6.28;;;13.30;69.50;;;;;;10970388;32;20385;-71
2023/03/04 18:46:47;;;;;;;8.75;6.00;;;13.30;69.80;;;;;;10968415;32;20049;-71
2023/03/04 18:52:53;;;;;;;10.85;5.93;;;13.20;70.30;;;;;;10985511;32;20019;-71
2023/03/04 18:58:57;;;;;;;10.35;6.53;;;13.10;70.60;;;;;;10979494;32;20018;-71
2023/03/04 19:05:10;;;;;;;13.23;5.97;;;13.00;70.90;;;;;;10983600;32;20053;-71
2023/03/04 19:11:12;;;;;;;10.65;6.35;;;12.90;71.20;;;;;;10983731;32;20048;-71
2023/03/04 19:17:17;;;;;;;9.23;6.57;;;12.90;71.50;;;;;;10984182;32;20015;-71
2023/03/04 19:23:19;;;;;;;10.68;7.32;;;12.80;71.80;;;;;;10983071;32;20018;-71
2023/03/04 19:29:21;;;;;;;13.95;8.45;;;12.70;72.10;;;;;;10969622;32;20018;-71
2023/03/04 19:35:24;;;;;;;12.50;8.38;;;12.70;72.30;;;;;;10982453;32;20383;-71
2023/03/04 19:41:29;;;;;;;16.25;11.00;;;12.50;72.50;;;;;;10982456;32;20045;-71
2023/03/04 19:47:31;;;;;;;18.73;11.48;;;12.40;72.80;;;;;;10979481;32;20026;-71
2023/03/04 19:53:33;;;;;;;15.10;11.07;;;12.20;73.10;;;;;;10982776;32;20048;-71
2023/03/04 19:59:38;;;;;;;20.02;15.93;;;12.20;73.30;;;;;;10982597;32;20219;-71
2023/03/04 20:05:40;;;;;;;35.75;24.37;;;12.20;73.40;;;;;;10982485;32;20011;-71
2023/03/04 20:11:44;;;;;;;17.23;11.68;;;12.10;73.50;;;;;;10980669;32;20101;-71
2023/03/04 20:17:46;;;;;;;23.17;15.27;;;12.00;73.80;;;;;;10982006;32;20427;-71
2023/03/04 20:23:48;;;;;;;16.12;11.48;;;11.90;74.00;;;;;;10977837;32;20050;-71
2023/03/04 20:29:50;;;;;;;13.75;10.13;;;11.80;74.10;;;;;;10966424;32;20023;-72
2023/03/04 20:35:52;;;;;;;18.95;11.30;;;11.70;74.30;;;;;;10980213;32;20041;-72
2023/03/04 20:41:56;;;;;;;15.20;10.02;;;11.60;74.60;;;;;;10980670;32;20317;-72
2023/03/04 20:47:58;;;;;;;20.20;13.45;;;11.50;74.60;;;;;;10979917;32;20050;-72
2023/03/04 20:54:01;;;;;;;24.37;18.30;;;11.50;74.90;;;;;;10965368;32;20065;-72
2023/03/04 21:00:05;;;;;;;28.70;22.10;;;11.50;74.80;;;;;;10980172;32;20324;-73
2023/03/04 21:06:09;;;;;;;42.55;27.17;;;11.50;75.00;;;;;;10962479;32;20034;-72
2023/03/04 21:12:11;;;;;;;19.25;16.27;;;11.40;75.40;;;;;;10979230;32;20022;-72
2023/03/04 21:18:14;;;;;;;25.10;15.95;;;11.20;75.60;;;;;;10979855;32;20015;-71
2023/03/04 21:24:22;;;;;;;28.55;23.85;;;11.20;75.80;;;;;;10979134;32;20022;-70
2023/03/04 21:30:24;;;;;;;25.17;19.90;;;11.20;75.80;;;;;;10979675;32;20014;-72
2023/03/04 21:36:27;;;;;;;21.95;15.68;;;11.10;76.40;;;;;;10980131;32;20054;-72
2023/03/04 21:42:29;;;;;;;27.95;20.88;;;11.00;76.80;;;;;;10978899;32;20041;-70
2023/03/04 21:48:32;;;;;;;21.50;15.25;;;10.90;76.70;;;;;;10964742;32;20034;-70
2023/03/04 21:54:34;;;;;;;17.90;14.05;;;10.80;76.60;;;;;;10979106;32;20389;-70
2023/03/04 22:00:37;;;;;;;22.77;16.30;;;10.80;76.50;;;;;;10975379;32;20019;-73
2023/03/04 22:06:39;;;;;;;21.58;15.85;;;10.70;76.50;;;;;;10976012;32;20054;-73
2023/03/04 22:12:41;;;;;;;16.62;13.50;;;10.70;76.50;;;;;;10971736;32;20439;-73
2023/03/04 22:18:44;;;;;;;16.83;13.65;;;10.60;76.60;;;;;;10985181;32;20014;-70
2023/03/04 22:24:46;;;;;;;20.65;15.32;;;10.50;76.70;;;;;;10985033;32;20397;-70
2023/03/04 22:30:48;;;;;;;16.87;14.93;;;10.50;76.70;;;;;;10972284;32;20317;-70
2023/03/04 22:36:51;;;;;;;16.60;13.02;;;10.40;76.80;;;;;;10965959;32;20399;-70
2023/03/04 22:42:53;;;;;;;18.70;15.15;;;10.30;76.70;;;;;;10969031;32;20053;-70
2023/03/04 22:48:57;;;;;;;20.60;14.07;;;10.30;76.80;;;;;;10984199;32;20045;-71
2023/03/04 22:55:00;;;;;;;29.25;23.95;;;10.20;76.80;;;;;;10968269;32;20031;-70
2023/03/04 23:01:03;;;;;;;18.45;13.88;;;10.20;77.10;;;;;;10984839;32;20037;-70
2023/03/04 23:07:05;;;;;;;20.67;16.83;;;10.10;77.10;;;;;;10984612;32;20011;-70
2023/03/04 23:13:07;;;;;;;18.00;14.07;;;10.10;77.00;;;;;;10969764;32;20022;-70
2023/03/04 23:19:15;;;;;;;16.37;14.35;;;10.00;77.10;;;;;;10981893;32;20364;-70
2023/03/04 23:25:17;;;;;;;19.98;15.35;;;10.00;77.10;;;;;;10982867;32;20023;-70
2023/03/04 23:31:19;;;;;;;18.70;13.75;;;9.90;77.10;;;;;;10983787;32;20050;-72
2023/03/04 23:37:22;;;;;;;26.90;20.02;;;9.80;77.20;;;;;;10982810;32;20034;-73
2023/03/04 23:43:45;;;;;;;18.65;15.25;;;9.80;77.10;;;;;;10964195;32;20188;-73
2023/03/04 23:49:48;;;;;;;26.15;18.23;;;9.70;77.40;;;;;;10982442;32;20343;-73
2023/03/04 23:55:50;;;;;;;22.73;15.85;;;9.70;77.30;;;;;;10982814;32;20015;-73
